Heraklion, Greece

6:58 AM EEST on May 28, 2015 (GMT +0300)
macnick's, near Pantanassa | | Change Station
CLOSE
Current Station
Personal Weather Station
Location: %u03A0%u03B1%u03BD%u03C4%u03AC%u03BD%u03B1%u03C3%u03C3%u03B1, %U039A%U03C1%U03AE%U03C4%U03B7
Elevation: 115 ft
Nearby Weather Stations
Active Advisory: Thunderstorms

Elev 115 ft 35.36 °N, 25.04 °E | Updated 3 minutes ago

Partly Cloudy
Partly Cloudy
67.7 °F
Feels Like 67.7 °F
N
3.0
Wind Variable Wind from ESE
Gusts 4.0 mph

Today
High -- | Low -- °F
--% Chance of Precip.
Yesterday
High -- | Low -- °F
Precip. -- in
6:07 AM 8:25 PM
Waxing Gibbous, 72% visible
Pressure 29.77 in
Visibility 6.2 miles
Clouds Few 2000 ft
Dew Point 55 °F
Humidity 63%
Rainfall 0.00 in
Snow Depth Not available.
UV 0 out of 12
Pollen Not available.
Air Quality Not available.
Flu Activity Not available.
METAR LGSA 280350Z 29010KT 9999 FEW020 18/13 Q1008

More Conditions Fewer Conditions

Pressure 29.77 in
Visibility 6.2 miles
Clouds Few 2000 ft
Dew Point 55 °F
Humidity 63%
Rainfall 0.00 in
Snow Depth Not available.
UV 0 out of 12
Pollen Not available.
Air Quality Not available.
Flu Activity Not available.
METAR LGSA 280350Z 29010KT 9999 FEW020 18/13 Q1008

More Conditions Fewer Conditions

10-Day Weather Forecast

Almanac

Astronomy

May. 28, 2015 Rise Set
Actual Time
Civil Twilight
Nautical Twilight
Astronomical Twilight
Moon
Length of Visible Light
Length of Day
Tomorrow will be .
, % of the Moon is Illuminated

Today's Extremes

Country Highs Country Lows

Community

WunderPhotos

Upload Photos

1,824,902 photos uploaded!

WunderBlogs® & News

Nearby

Air Quality

  Air Quality AQ Index Pollutant
Not available.

Snow Depth

Station Depth Elevation

Earthquake Activity

City Distance Mag. Time & Date
Minimum magnitude displayed is 2.5.

Coastal Water Temperatures

Place Temperature

Stations

Nearby Weather Stations

Station Location Temp. Windchill Dew Point Humidity Wind Precip. Elev Updated Type